Greenbackville, Virginia
Current Conditions -  °F | °C
As of 2:54 AM on Friday 19 Dec 2014 (Local Time) from KWAL Reporting Station
Overcast Overcast  
Wind Chill: 29°   Ceiling: 10000
Heat Index: 34°   Visibility: 10mi
Dew Point: 27°   Wind: 6mph
Humidity: 75%   Direction: 310°NW
Pressure: 30.1"   Gusts: NA
Location:  38.01°N, 75.39°W
Report Text: KWAL 190754Z AUTO 31005KT 10SM OVC100 01/M03 A3010 RMK AO2 SLP191 T00111028
Loading
Personal Weather Stations






























Interactive Weather Map New forecast layout! Learn more

10-Day Weather Forecast

Advertisements
Track Severe Weather on mobile